Clipper Imabari — 3ERD7 — position and weather

sailwx.info

Track history (hours):
 
Tides and Currents Weather Stations Pressure Air Temp Water Temp Dewpoint Dewpoint Depression Visibility Wind Speed Wind Dir Waves Ship Positions

Clipper Imabari

Last reported at 2015-Jun-03 14:19 UTC. Time now 2015-Jul-04 13:36 UTC.
Position N 35°45' E 016°57'.
Warning: this ship's position is 30 days out of date.

Length 169 m; draft 9.9 m.

Type: Ship. MMSI: 370016000.

Date/timePositionNaut miles runAvg speedWind from/ knotsBaromVisibWave heightAir tempDewpointWater temp
2015-Jun-03 14:19N 35°45' E 016°57'6711.6
2015-Jun-03 08:33N 36°04' E 015°37'1511.7
2015-Jun-03 07:18N 36°07' E 015°20'1212.1
2015-Jun-03 06:18N 36°10' E 015°05'911.9
2015-Jun-03 05:33N 36°12' E 014°54'1211.6
2015-Jun-03 04:33N 36°14' E 014°40'1211.7
2015-Jun-03 03:33N 36°16' E 014°26'1211.9
2015-Jun-03 02:34N 36°20' E 014°12'1212.1
2015-Jun-03 01:34N 36°22' E 013°57'1212.2
2015-Jun-03 00:33N 36°27' E 013°43'1212.3
2015-Jun-02 23:33N 36°32' E 013°29'1212.2
2015-Jun-02 22:34N 36°37' E 013°15'1211.8
2015-Jun-02 21:33N 36°42' E 013°02'1212.0
2015-Jun-02 20:33N 36°47' E 012°48'1212.1
2015-Jun-02 19:33N 36°52' E 012°35'1212.2
2015-Jun-02 18:34N 36°56' E 012°20'1211.7
2015-Jun-02 17:33N 37°01' E 012°07'2311.5
2015-Jun-02 15:32N 37°10' E 011°40'8111.6
2015-Jun-02 08:31N 37°34' E 010°02'1212.4
2015-Jun-02 07:33N 37°31' E 009°48'1312.6
2015-Jun-02 06:32N 37°27' E 009°32'1313.3
2015-Jun-02 05:33N 37°24' E 009°16'2912.3
2015-Jun-02 03:13N 37°20' E 008°40'812.3
2015-Jun-02 02:32N 37°20' E 008°30'1212.4
2015-Jun-02 01:33N 37°20' E 008°15'1212.1
2015-Jun-02 00:33N 37°20' E 007°59'1511.6
2015-Jun-01 23:14N 37°20' E 007°40'811.5
2015-Jun-01 22:33N 37°20' E 007°30'3811.9
2015-Jun-01 19:20N 37°20' E 006°42'1011.7
2015-Jun-01 18:30N 37°20' E 006°30'1111.4
2015-Jun-01 17:33N 37°20' E 006°16'1310.9
2015-Jun-01 16:20N 37°20' E 005°60'1010.6
2015-Jun-01 15:22N 37°20' E 005°47'3111.1
2015-Jun-01 12:33N 37°19' E 005°08'1311.7
2015-Jun-01 11:24N 37°17' E 004°51'1211.7
2015-Jun-01 10:23N 37°16' E 004°36'1012.0
2015-Jun-01 09:33N 37°15' E 004°24'1211.8
2015-Jun-01 08:34N 37°15' E 004°09'1311.9
2015-Jun-01 07:29N 37°13' E 003°53'1111.9
2015-Jun-01 06:33N 37°13' E 003°39'1212.3
2015-Jun-01 05:33N 37°12' E 003°24'3511.7
2015-Jun-01 02:33N 37°06' E 002°40'1311.8
2015-Jun-01 01:25N 37°04' E 002°24'1011.3
2015-Jun-01 00:33N 37°01' E 002°12'1111.2
2015-May-31 23:33N 36°59' E 001°58'1211.4
2015-May-31 22:32N 36°57' E 001°44'1111.6
2015-May-31 21:33N 36°54' E 001°30'1211.7
2015-May-31 20:33N 36°52' E 001°15'1211.8
2015-May-31 19:33N 36°49' E 001°01'1211.9
2015-May-31 18:33N 36°47' E 000°47'1212.2
2015-May-31 17:33N 36°44' E 000°32'1212.1
2015-May-31 16:33N 36°41' E 000°17'1211.7
2015-May-31 15:33N 36°39' E 000°03'1111.5
2015-May-31 14:34N 36°37' W 000°11'1211.5
2015-May-31 13:33N 36°35' W 000°26'1211.8
2015-May-31 12:33N 36°33' W 000°40'1212.2
2015-May-31 11:32N 36°32' W 000°55'1111.6
2015-May-31 10:34N 36°30' W 001°09'1311.9
2015-May-31 09:27N 36°28' W 001°25'1111.9
2015-May-31 08:32N 36°26' W 001°39'1211.9
2015-May-31 07:32N 36°25' W 001°53'1212.5
2015-May-31 06:32N 36°23' W 002°09'1111.8
2015-May-31 05:34N 36°21' W 002°23'1111.0
2015-May-31 04:33N 36°20' W 002°36'1211.4
2015-May-31 03:28N 36°17' W 002°52'11912.1
2015-May-30 17:34N 35°59' W 005°18'1614.9
2015-May-30 16:30N 35°55' W 005°37'7512.5
2015-May-30 10:30N 36°03' W 007°09'1212.1
2015-May-30 09:32N 36°07' W 007°23'1212.5
2015-May-30 08:34N 36°10' W 007°38'1212.4
2015-May-30 07:34N 36°13' W 007°52'1412.6
2015-May-30 06:25N 36°18' W 008°09'1011.9
2015-May-30 05:33N 36°21' W 008°22'1211.7
2015-May-30 04:34N 36°24' W 008°35'1311.5
2015-May-30 03:24N 36°27' W 008°51'1011.5
2015-May-30 02:34N 36°30' W 009°03'1111.2
2015-May-30 01:33N 36°33' W 009°16'1111.4
2015-May-30 00:33N 36°42' W 009°26'1111.1
2015-May-29 23:34N 36°51' W 009°34'1111.4
2015-May-29 22:34N 37°02' W 009°37'1211.8
2015-May-29 21:33N 37°13' W 009°40'1211.8
2015-May-29 20:34N 37°25' W 009°44'1211.6
2015-May-29 19:33N 37°36' W 009°47'1211.8
2015-May-29 18:33N 37°48' W 009°50'1212.0
2015-May-29 17:33N 37°60' W 009°52'1211.8
2015-May-29 16:33N 38°11' W 009°54'1211.9
2015-May-29 15:34N 38°23' W 009°59'1211.6
2015-May-29 14:34N 38°34' W 010°04'1211.9
2015-May-29 13:34N 38°45' W 010°06'1212.0
2015-May-29 12:34N 38°57' W 010°07'1211.8
2015-May-29 11:34N 39°09' W 010°06'1211.7
2015-May-29 10:33N 39°21' W 010°07'1211.8
2015-May-29 09:31N 39°33' W 010°06'1111.7
2015-May-29 08:33N 39°45' W 010°06'1211.8
2015-May-29 07:33N 39°56' W 010°07'1512.2
2015-May-29 06:18N 40°12' W 010°07'912.3
2015-May-29 05:33N 40°21' W 010°07'10711.9
2015-May-28 20:32N 42°08' W 010°07'56611.5
2015-May-26 19:29N 50°01' W 002°41'5111.9
2015-May-26 15:10N 50°15' W 001°24'6711.5
2015-May-26 09:23N 50°33' E 000°17'1012.8
2015-May-26 08:34N 50°36' E 000°33'1212.4
2015-May-26 07:34N 50°43' E 000°49'1211.6
2015-May-26 06:33N 50°51' E 001°03'1211.0
2015-May-26 05:27N 50°59' E 001°17'910.0
2015-May-26 04:33N 51°05' E 001°28'1111.1
2015-May-26 03:33N 51°11' E 001°42'1212.3
2015-May-26 02:34N 51°22' E 001°51'1312.8
2015-May-26 01:34N 51°32' E 002°04'1312.8
2015-May-26 00:33N 51°42' E 002°17'7911.3
2015-May-25 17:33N 52°43' E 003°39'1212.2
2015-May-25 16:33N 52°52' E 003°52'1312.6
2015-May-25 15:33N 53°01' E 004°08'1212.2
2015-May-25 14:32N 53°09' E 004°23'1812.1
2015-May-25 13:05N 53°26' E 004°33'611.5
2015-May-25 12:34N 53°31' E 004°37'1411.4
2015-May-25 11:18N 53°45' E 004°45'1011.4
2015-May-25 10:24N 53°54' E 004°51'1011.4
2015-May-25 09:32N 54°03' E 004°58'1111.6
2015-May-25 08:33N 54°13' E 005°08'1211.9
2015-May-25 07:33N 54°24' E 005°18'  
Track history (hours):
 
Tides and Currents Weather Stations Pressure Air Temp Water Temp Dewpoint Dewpoint Depression Visibility Wind Speed Wind Dir Waves Ship Positions

Clipper Imabari

Last reported at 2015-Jun-03 14:19 UTC. Time now 2015-Jul-04 13:36 UTC.
Position N 35°45' E 016°57'.
Warning: this ship's position is 30 days out of date.

Length 169 m; draft 9.9 m.

Type: Ship. MMSI: 370016000.

Date/timePositionNaut miles runAvg speedWind from/ knotsBaromVisibWave heightAir tempDewpointWater temp
2015-Jun-03 14:19N 35°45' E 016°57'6711.6
2015-Jun-03 08:33N 36°04' E 015°37'1511.7
2015-Jun-03 07:18N 36°07' E 015°20'1212.1
2015-Jun-03 06:18N 36°10' E 015°05'911.9
2015-Jun-03 05:33N 36°12' E 014°54'1211.6
2015-Jun-03 04:33N 36°14' E 014°40'1211.7
2015-Jun-03 03:33N 36°16' E 014°26'1211.9
2015-Jun-03 02:34N 36°20' E 014°12'1212.1
2015-Jun-03 01:34N 36°22' E 013°57'1212.2
2015-Jun-03 00:33N 36°27' E 013°43'1212.3
2015-Jun-02 23:33N 36°32' E 013°29'1212.2
2015-Jun-02 22:34N 36°37' E 013°15'1211.8
2015-Jun-02 21:33N 36°42' E 013°02'1212.0
2015-Jun-02 20:33N 36°47' E 012°48'1212.1
2015-Jun-02 19:33N 36°52' E 012°35'1212.2
2015-Jun-02 18:34N 36°56' E 012°20'1211.7
2015-Jun-02 17:33N 37°01' E 012°07'2311.5
2015-Jun-02 15:32N 37°10' E 011°40'8111.6
2015-Jun-02 08:31N 37°34' E 010°02'1212.4
2015-Jun-02 07:33N 37°31' E 009°48'1312.6
2015-Jun-02 06:32N 37°27' E 009°32'1313.3
2015-Jun-02 05:33N 37°24' E 009°16'2912.3
2015-Jun-02 03:13N 37°20' E 008°40'812.3
2015-Jun-02 02:32N 37°20' E 008°30'1212.4
2015-Jun-02 01:33N 37°20' E 008°15'1212.1
2015-Jun-02 00:33N 37°20' E 007°59'1511.6
2015-Jun-01 23:14N 37°20' E 007°40'811.5
2015-Jun-01 22:33N 37°20' E 007°30'3811.9
2015-Jun-01 19:20N 37°20' E 006°42'1011.7
2015-Jun-01 18:30N 37°20' E 006°30'1111.4
2015-Jun-01 17:33N 37°20' E 006°16'1310.9
2015-Jun-01 16:20N 37°20' E 005°60'1010.6
2015-Jun-01 15:22N 37°20' E 005°47'3111.1
2015-Jun-01 12:33N 37°19' E 005°08'1311.7
2015-Jun-01 11:24N 37°17' E 004°51'1211.7
2015-Jun-01 10:23N 37°16' E 004°36'1012.0
2015-Jun-01 09:33N 37°15' E 004°24'1211.8
2015-Jun-01 08:34N 37°15' E 004°09'1311.9
2015-Jun-01 07:29N 37°13' E 003°53'1111.9
2015-Jun-01 06:33N 37°13' E 003°39'1212.3
2015-Jun-01 05:33N 37°12' E 003°24'3511.7
2015-Jun-01 02:33N 37°06' E 002°40'1311.8
2015-Jun-01 01:25N 37°04' E 002°24'1011.3
2015-Jun-01 00:33N 37°01' E 002°12'1111.2
2015-May-31 23:33N 36°59' E 001°58'1211.4
2015-May-31 22:32N 36°57' E 001°44'1111.6
2015-May-31 21:33N 36°54' E 001°30'1211.7
2015-May-31 20:33N 36°52' E 001°15'1211.8
2015-May-31 19:33N 36°49' E 001°01'1211.9
2015-May-31 18:33N 36°47' E 000°47'1212.2
2015-May-31 17:33N 36°44' E 000°32'1212.1
2015-May-31 16:33N 36°41' E 000°17'1211.7
2015-May-31 15:33N 36°39' E 000°03'1111.5
2015-May-31 14:34N 36°37' W 000°11'1211.5
2015-May-31 13:33N 36°35' W 000°26'1211.8
2015-May-31 12:33N 36°33' W 000°40'1212.2
2015-May-31 11:32N 36°32' W 000°55'1111.6
2015-May-31 10:34N 36°30' W 001°09'1311.9
2015-May-31 09:27N 36°28' W 001°25'1111.9
2015-May-31 08:32N 36°26' W 001°39'1211.9
2015-May-31 07:32N 36°25' W 001°53'1212.5
2015-May-31 06:32N 36°23' W 002°09'1111.8
2015-May-31 05:34N 36°21' W 002°23'1111.0
2015-May-31 04:33N 36°20' W 002°36'1211.4
2015-May-31 03:28N 36°17' W 002°52'11912.1
2015-May-30 17:34N 35°59' W 005°18'1614.9
2015-May-30 16:30N 35°55' W 005°37'7512.5
2015-May-30 10:30N 36°03' W 007°09'1212.1
2015-May-30 09:32N 36°07' W 007°23'1212.5
2015-May-30 08:34N 36°10' W 007°38'1212.4
2015-May-30 07:34N 36°13' W 007°52'1412.6
2015-May-30 06:25N 36°18' W 008°09'1011.9
2015-May-30 05:33N 36°21' W 008°22'1211.7
2015-May-30 04:34N 36°24' W 008°35'1311.5
2015-May-30 03:24N 36°27' W 008°51'1011.5
2015-May-30 02:34N 36°30' W 009°03'1111.2
2015-May-30 01:33N 36°33' W 009°16'1111.4
2015-May-30 00:33N 36°42' W 009°26'1111.1
2015-May-29 23:34N 36°51' W 009°34'1111.4
2015-May-29 22:34N 37°02' W 009°37'1211.8
2015-May-29 21:33N 37°13' W 009°40'1211.8
2015-May-29 20:34N 37°25' W 009°44'1211.6
2015-May-29 19:33N 37°36' W 009°47'1211.8
2015-May-29 18:33N 37°48' W 009°50'1212.0
2015-May-29 17:33N 37°60' W 009°52'1211.8
2015-May-29 16:33N 38°11' W 009°54'1211.9
2015-May-29 15:34N 38°23' W 009°59'1211.6
2015-May-29 14:34N 38°34' W 010°04'1211.9
2015-May-29 13:34N 38°45' W 010°06'1212.0
2015-May-29 12:34N 38°57' W 010°07'1211.8
2015-May-29 11:34N 39°09' W 010°06'1211.7
2015-May-29 10:33N 39°21' W 010°07'1211.8
2015-May-29 09:31N 39°33' W 010°06'1111.7
2015-May-29 08:33N 39°45' W 010°06'1211.8
2015-May-29 07:33N 39°56' W 010°07'1512.2
2015-May-29 06:18N 40°12' W 010°07'912.3
2015-May-29 05:33N 40°21' W 010°07'10711.9
2015-May-28 20:32N 42°08' W 010°07'56611.5
2015-May-26 19:29N 50°01' W 002°41'5111.9
2015-May-26 15:10N 50°15' W 001°24'6711.5
2015-May-26 09:23N 50°33' E 000°17'1012.8
2015-May-26 08:34N 50°36' E 000°33'1212.4
2015-May-26 07:34N 50°43' E 000°49'1211.6
2015-May-26 06:33N 50°51' E 001°03'1211.0
2015-May-26 05:27N 50°59' E 001°17'910.0
2015-May-26 04:33N 51°05' E 001°28'1111.1
2015-May-26 03:33N 51°11' E 001°42'1212.3
2015-May-26 02:34N 51°22' E 001°51'1312.8
2015-May-26 01:34N 51°32' E 002°04'1312.8
2015-May-26 00:33N 51°42' E 002°17'7911.3
2015-May-25 17:33N 52°43' E 003°39'1212.2
2015-May-25 16:33N 52°52' E 003°52'1312.6
2015-May-25 15:33N 53°01' E 004°08'1212.2
2015-May-25 14:32N 53°09' E 004°23'1812.1
2015-May-25 13:05N 53°26' E 004°33'611.5
2015-May-25 12:34N 53°31' E 004°37'1411.4
2015-May-25 11:18N 53°45' E 004°45'1011.4
2015-May-25 10:24N 53°54' E 004°51'1011.4
2015-May-25 09:32N 54°03' E 004°58'1111.6
2015-May-25 08:33N 54°13' E 005°08'1211.9
2015-May-25 07:33N 54°24' E 005°18'  

Dump ship's entire track history